sensor_id;sensor_type;location;lat;lon;timestamp;temperature;humidity
9802;DHT22;4940;50.900;4.672;2023-09-07T00:01:37;19.80;99.90
9802;DHT22;4940;50.900;4.672;2023-09-07T00:06:32;19.70;99.90
9802;DHT22;4940;50.900;4.672;2023-09-07T00:09:02;19.70;99.90
9802;DHT22;4940;50.900;4.672;2023-09-07T00:13:59;19.60;99.90
9802;DHT22;4940;50.900;4.672;2023-09-07T00:16:26;19.60;99.90
9802;DHT22;4940;50.900;4.672;2023-09-07T00:18:54;19.60;99.90
9802;DHT22;4940;50.900;4.672;2023-09-07T00:21:21;19.50;99.90
9802;DHT22;4940;50.900;4.672;2023-09-07T00:23:49;19.50;99.90
9802;DHT22;4940;50.900;4.672;2023-09-07T00:26:17;19.40;99.90
9802;DHT22;4940;50.900;4.672;2023-09-07T00:28:45;19.40;99.90
9802;DHT22;4940;50.900;4.672;2023-09-07T00:31:12;19.40;99.90
9802;DHT22;4940;50.900;4.672;2023-09-07T00:33:39;19.30;99.90
9802;DHT22;4940;50.900;4.672;2023-09-07T00:36:07;19.30;99.90
9802;DHT22;4940;50.900;4.672;2023-09-07T00:38:34;19.20;99.90
9802;DHT22;4940;50.900;4.672;2023-09-07T00:41:02;19.20;99.90
9802;DHT22;4940;50.900;4.672;2023-09-07T00:43:30;19.20;99.90
9802;DHT22;4940;50.900;4.672;2023-09-07T00:45:57;19.10;99.90
9802;DHT22;4940;50.900;4.672;2023-09-07T00:48:25;19.10;99.90
9802;DHT22;4940;50.900;4.672;2023-09-07T00:55:48;19.00;99.90
9802;DHT22;4940;50.900;4.672;2023-09-07T00:58:16;19.00;99.90
9802;DHT22;4940;50.900;4.672;2023-09-07T01:00:44;18.90;99.90
9802;DHT22;4940;50.900;4.672;2023-09-07T01:03:11;18.90;99.90
9802;DHT22;4940;50.900;4.672;2023-09-07T01:05:43;18.80;99.90
9802;DHT22;4940;50.900;4.672;2023-09-07T01:08:19;18.70;99.90
9802;DHT22;4940;50.900;4.672;2023-09-07T01:10:49;18.80;99.90
9802;DHT22;4940;50.900;4.672;2023-09-07T01:13:16;18.70;99.90
9802;DHT22;4940;50.900;4.672;2023-09-07T01:15:45;18.70;99.90
9802;DHT22;4940;50.900;4.672;2023-09-07T01:18:14;18.70;99.90
9802;DHT22;4940;50.900;4.672;2023-09-07T01:20:44;18.60;99.90
9802;DHT22;4940;50.900;4.672;2023-09-07T01:23:13;18.60;99.90
9802;DHT22;4940;50.900;4.672;2023-09-07T01:25:41;18.60;99.90
9802;DHT22;4940;50.900;4.672;2023-09-07T01:28:09;18.60;99.90
9802;DHT22;4940;50.900;4.672;2023-09-07T01:30:37;18.50;99.90
9802;DHT22;4940;50.900;4.672;2023-09-07T01:33:05;18.50;99.90
9802;DHT22;4940;50.900;4.672;2023-09-07T01:35:35;18.50;99.90
9802;DHT22;4940;50.900;4.672;2023-09-07T01:38:03;18.40;99.90
9802;DHT22;4940;50.900;4.672;2023-09-07T01:40:32;18.40;99.90
9802;DHT22;4940;50.900;4.672;2023-09-07T01:42:59;18.40;99.90
9802;DHT22;4940;50.900;4.672;2023-09-07T01:45:27;18.40;99.90
9802;DHT22;4940;50.900;4.672;2023-09-07T01:47:54;18.30;99.90
9802;DHT22;4940;50.900;4.672;2023-09-07T01:50:21;18.30;99.90
9802;DHT22;4940;50.900;4.672;2023-09-07T01:52:51;18.30;99.90
9802;DHT22;4940;50.900;4.672;2023-09-07T01:55:20;18.30;99.90
9802;DHT22;4940;50.900;4.672;2023-09-07T01:57:49;18.20;99.90
9802;DHT22;4940;50.900;4.672;2023-09-07T02:02:43;18.20;99.90
9802;DHT22;4940;50.900;4.672;2023-09-07T02:05:11;18.10;99.90
9802;DHT22;4940;50.900;4.672;2023-09-07T02:07:38;18.10;99.90
9802;DHT22;4940;50.900;4.672;2023-09-07T02:10:06;18.00;99.90
9802;DHT22;4940;50.900;4.672;2023-09-07T02:12:34;18.10;99.90
9802;DHT22;4940;50.900;4.672;2023-09-07T02:15:04;18.00;99.90
9802;DHT22;4940;50.900;4.672;2023-09-07T02:17:31;18.20;99.90
9802;DHT22;4940;50.900;4.672;2023-09-07T02:19:58;17.90;99.90
9802;DHT22;4940;50.900;4.672;2023-09-07T02:22:26;17.90;99.90
9802;DHT22;4940;50.900;4.672;2023-09-07T02:24:53;17.90;99.90
9802;DHT22;4940;50.900;4.672;2023-09-07T02:29:48;17.80;99.90
9802;DHT22;4940;50.900;4.672;2023-09-07T02:32:17;17.80;99.90
9802;DHT22;4940;50.900;4.672;2023-09-07T02:34:44;17.80;99.90
9802;DHT22;4940;50.900;4.672;2023-09-07T02:37:12;17.70;99.90
9802;DHT22;4940;50.900;4.672;2023-09-07T02:42:08;17.70;99.90
9802;DHT22;4940;50.900;4.672;2023-09-07T02:44:35;17.60;99.90
9802;DHT22;4940;50.900;4.672;2023-09-07T02:49:33;17.60;99.90
9802;DHT22;4940;50.900;4.672;2023-09-07T02:52:01;17.60;99.90
9802;DHT22;4940;50.900;4.672;2023-09-07T02:54:28;17.50;99.90
9802;DHT22;4940;50.900;4.672;2023-09-07T02:56:56;17.50;99.90
9802;DHT22;4940;50.900;4.672;2023-09-07T02:59:23;17.40;99.90
9802;DHT22;4940;50.900;4.672;2023-09-07T03:01:50;17.40;99.90
9802;DHT22;4940;50.900;4.672;2023-09-07T03:04:17;17.40;99.90
9802;DHT22;4940;50.900;4.672;2023-09-07T03:06:46;17.40;99.90
9802;DHT22;4940;50.900;4.672;2023-09-07T03:14:08;17.20;99.90
9802;DHT22;4940;50.900;4.672;2023-09-07T03:16:36;17.30;99.90
9802;DHT22;4940;50.900;4.672;2023-09-07T03:19:04;17.20;99.90
9802;DHT22;4940;50.900;4.672;2023-09-07T03:21:32;17.30;99.90
9802;DHT22;4940;50.900;4.672;2023-09-07T03:26:29;18.40;99.90
9802;DHT22;4940;50.900;4.672;2023-09-07T03:28:56;17.20;99.90
9802;DHT22;4940;50.900;4.672;2023-09-07T03:33:51;17.10;99.90
9802;DHT22;4940;50.900;4.672;2023-09-07T03:36:19;17.10;99.90
9802;DHT22;4940;50.900;4.672;2023-09-07T03:38:46;17.10;99.90
9802;DHT22;4940;50.900;4.672;2023-09-07T03:41:14;17.10;99.90
9802;DHT22;4940;50.900;4.672;2023-09-07T03:43:42;17.10;99.90
9802;DHT22;4940;50.900;4.672;2023-09-07T03:56:02;16.90;99.90
9802;DHT22;4940;50.900;4.672;2023-09-07T03:58:32;16.70;99.90
9802;DHT22;4940;50.900;4.672;2023-09-07T04:01:00;16.90;99.90
9802;DHT22;4940;50.900;4.672;2023-09-07T04:03:27;16.80;99.90
9802;DHT22;4940;50.900;4.672;2023-09-07T04:08:22;16.80;99.90
9802;DHT22;4940;50.900;4.672;2023-09-07T04:15:46;16.70;99.90
9802;DHT22;4940;50.900;4.672;2023-09-07T04:20:45;16.70;99.90
9802;DHT22;4940;50.900;4.672;2023-09-07T04:26:02;16.60;99.90
9802;DHT22;4940;50.900;4.672;2023-09-07T04:28:30;16.50;99.90
9802;DHT22;4940;50.900;4.672;2023-09-07T04:30:58;15.70;99.90
9802;DHT22;4940;50.900;4.672;2023-09-07T04:33:25;16.60;99.90
9802;DHT22;4940;50.900;4.672;2023-09-07T04:38:20;16.50;99.90
9802;DHT22;4940;50.900;4.672;2023-09-07T04:43:15;16.50;99.90
9802;DHT22;4940;50.900;4.672;2023-09-07T04:45:46;16.40;99.90
9802;DHT22;4940;50.900;4.672;2023-09-07T04:48:14;16.40;99.90
9802;DHT22;4940;50.900;4.672;2023-09-07T04:50:42;16.40;99.90
9802;DHT22;4940;50.900;4.672;2023-09-07T04:55:38;16.40;99.90
9802;DHT22;4940;50.900;4.672;2023-09-07T04:58:06;16.50;99.90
9802;DHT22;4940;50.900;4.672;2023-09-07T05:05:29;16.40;99.90
9802;DHT22;4940;50.900;4.672;2023-09-07T05:07:56;16.40;99.90
9802;DHT22;4940;50.900;4.672;2023-09-07T05:10:24;16.40;99.90
9802;DHT22;4940;50.900;4.672;2023-09-07T05:12:51;16.40;99.90
9802;DHT22;4940;50.900;4.672;2023-09-07T05:17:46;16.30;99.90
9802;DHT22;4940;50.900;4.672;2023-09-07T05:20:13;16.30;99.90
9802;DHT22;4940;50.900;4.672;2023-09-07T05:22:42;16.30;99.90
9802;DHT22;4940;50.900;4.672;2023-09-07T05:27:37;16.30;99.90
9802;DHT22;4940;50.900;4.672;2023-09-07T05:30:06;16.30;99.90
9802;DHT22;4940;50.900;4.672;2023-09-07T05:35:00;16.30;99.90
9802;DHT22;4940;50.900;4.672;2023-09-07T05:37:28;16.10;99.90
9802;DHT22;4940;50.900;4.672;2023-09-07T05:39:57;16.30;99.90
9802;DHT22;4940;50.900;4.672;2023-09-07T05:42:24;16.30;99.90
9802;DHT22;4940;50.900;4.672;2023-09-07T05:44:52;16.40;99.90
9802;DHT22;4940;50.900;4.672;2023-09-07T05:47:20;16.30;99.90
9802;DHT22;4940;50.900;4.672;2023-09-07T05:49:47;16.40;99.90
9802;DHT22;4940;50.900;4.672;2023-09-07T05:57:10;16.50;99.90
9802;DHT22;4940;50.900;4.672;2023-09-07T05:59:38;16.50;99.90
9802;DHT22;4940;50.900;4.672;2023-09-07T06:07:01;16.60;99.90
9802;DHT22;4940;50.900;4.672;2023-09-07T06:09:28;16.70;99.90
9802;DHT22;4940;50.900;4.672;2023-09-07T06:14:25;16.80;99.90
9802;DHT22;4940;50.900;4.672;2023-09-07T06:21:47;17.00;99.90
9802;DHT22;4940;50.900;4.672;2023-09-07T06:26:42;17.10;99.90
9802;DHT22;4940;50.900;4.672;2023-09-07T06:29:10;17.20;99.90
9802;DHT22;4940;50.900;4.672;2023-09-07T06:31:39;17.30;99.90
9802;DHT22;4940;50.900;4.672;2023-09-07T06:34:06;17.30;99.90
9802;DHT22;4940;50.900;4.672;2023-09-07T06:36:33;17.40;99.90
9802;DHT22;4940;50.900;4.672;2023-09-07T06:39:00;17.50;99.90
9802;DHT22;4940;50.900;4.672;2023-09-07T06:41:28;17.60;99.90
9802;DHT22;4940;50.900;4.672;2023-09-07T06:43:55;17.60;99.90
9802;DHT22;4940;50.900;4.672;2023-09-07T06:46:23;17.70;99.90
9802;DHT22;4940;50.900;4.672;2023-09-07T06:48:52;17.70;99.90
9802;DHT22;4940;50.900;4.672;2023-09-07T06:51:19;17.80;99.90
9802;DHT22;4940;50.900;4.672;2023-09-07T06:53:46;17.90;99.90
9802;DHT22;4940;50.900;4.672;2023-09-07T06:56:16;18.00;99.90
9802;DHT22;4940;50.900;4.672;2023-09-07T07:01:11;18.10;99.90
9802;DHT22;4940;50.900;4.672;2023-09-07T07:03:38;18.20;99.90
9802;DHT22;4940;50.900;4.672;2023-09-07T07:06:07;18.50;99.90
9802;DHT22;4940;50.900;4.672;2023-09-07T07:08:35;18.40;99.90
9802;DHT22;4940;50.900;4.672;2023-09-07T07:11:02;18.50;99.90
9802;DHT22;4940;50.900;4.672;2023-09-07T07:13:29;18.50;99.90
9802;DHT22;4940;50.900;4.672;2023-09-07T07:15:56;18.60;99.90
9802;DHT22;4940;50.900;4.672;2023-09-07T07:18:24;18.70;99.90
9802;DHT22;4940;50.900;4.672;2023-09-07T07:20:51;18.80;99.90
9802;DHT22;4940;50.900;4.672;2023-09-07T07:23:20;18.90;99.90
9802;DHT22;4940;50.900;4.672;2023-09-07T07:25:47;18.90;99.90
9802;DHT22;4940;50.900;4.672;2023-09-07T07:28:14;19.00;99.90
9802;DHT22;4940;50.900;4.672;2023-09-07T07:30:42;19.10;99.90
9802;DHT22;4940;50.900;4.672;2023-09-07T07:33:09;19.20;99.90
9802;DHT22;4940;50.900;4.672;2023-09-07T07:35:38;19.30;99.90
9802;DHT22;4940;50.900;4.672;2023-09-07T07:38:05;19.30;99.90
9802;DHT22;4940;50.900;4.672;2023-09-07T07:40:35;19.50;99.90
9802;DHT22;4940;50.900;4.672;2023-09-07T07:43:02;19.70;99.90
9802;DHT22;4940;50.900;4.672;2023-09-07T07:45:30;20.10;99.90
9802;DHT22;4940;50.900;4.672;2023-09-07T07:48:02;20.70;99.90
9802;DHT22;4940;50.900;4.672;2023-09-07T07:50:31;20.80;99.90
9802;DHT22;4940;50.900;4.672;2023-09-07T07:52:58;22.30;99.90
9802;DHT22;4940;50.900;4.672;2023-09-07T07:55:26;22.50;99.90
9802;DHT22;4940;50.900;4.672;2023-09-07T07:57:54;24.10;99.90
9802;DHT22;4940;50.900;4.672;2023-09-07T08:00:22;24.20;99.90
9802;DHT22;4940;50.900;4.672;2023-09-07T08:02:49;25.80;99.90
9802;DHT22;4940;50.900;4.672;2023-09-07T08:05:16;25.90;99.90
9802;DHT22;4940;50.900;4.672;2023-09-07T08:07:44;26.60;99.90
9802;DHT22;4940;50.900;4.672;2023-09-07T08:10:11;27.90;99.90
9802;DHT22;4940;50.900;4.672;2023-09-07T08:12:39;28.00;99.90
9802;DHT22;4940;50.900;4.672;2023-09-07T08:15:08;28.60;99.90
9802;DHT22;4940;50.900;4.672;2023-09-07T08:17:35;29.30;99.90
9802;DHT22;4940;50.900;4.672;2023-09-07T08:20:03;29.90;99.90
9802;DHT22;4940;50.900;4.672;2023-09-07T08:22:33;30.70;99.90
9802;DHT22;4940;50.900;4.672;2023-09-07T08:25:02;30.90;99.90
9802;DHT22;4940;50.900;4.672;2023-09-07T08:27:30;31.70;99.90
9802;DHT22;4940;50.900;4.672;2023-09-07T08:29:57;32.00;99.90
9802;DHT22;4940;50.900;4.672;2023-09-07T08:32:26;32.00;99.90
9802;DHT22;4940;50.900;4.672;2023-09-07T08:34:53;32.50;99.30
9802;DHT22;4940;50.900;4.672;2023-09-07T08:37:25;32.60;99.10
9802;DHT22;4940;50.900;4.672;2023-09-07T08:39:54;33.00;98.90
9802;DHT22;4940;50.900;4.672;2023-09-07T08:42:22;33.10;98.00
9802;DHT22;4940;50.900;4.672;2023-09-07T08:44:51;33.40;97.50
9802;DHT22;4940;50.900;4.672;2023-09-07T08:47:21;33.60;97.00
9802;DHT22;4940;50.900;4.672;2023-09-07T08:49:50;34.00;96.10
9802;DHT22;4940;50.900;4.672;2023-09-07T08:52:17;34.30;95.00
9802;DHT22;4940;50.900;4.672;2023-09-07T08:54:46;34.50;94.30
9802;DHT22;4940;50.900;4.672;2023-09-07T08:57:13;34.60;93.30
9802;DHT22;4940;50.900;4.672;2023-09-07T09:02:10;35.00;93.10
9802;DHT22;4940;50.900;4.672;2023-09-07T09:04:38;35.30;92.50
9802;DHT22;4940;50.900;4.672;2023-09-07T09:07:07;35.40;92.30
9802;DHT22;4940;50.900;4.672;2023-09-07T09:09:35;35.50;91.60
9802;DHT22;4940;50.900;4.672;2023-09-07T09:12:07;35.60;91.60
9802;DHT22;4940;50.900;4.672;2023-09-07T09:14:35;35.60;90.60
9802;DHT22;4940;50.900;4.672;2023-09-07T09:17:03;35.70;90.70
9802;DHT22;4940;50.900;4.672;2023-09-07T09:19:31;35.80;90.50
9802;DHT22;4940;50.900;4.672;2023-09-07T09:21:58;36.00;89.90
9802;DHT22;4940;50.900;4.672;2023-09-07T09:24:27;36.20;88.50
9802;DHT22;4940;50.900;4.672;2023-09-07T09:26:54;36.30;89.10
9802;DHT22;4940;50.900;4.672;2023-09-07T09:29:22;36.40;88.30
9802;DHT22;4940;50.900;4.672;2023-09-07T09:31:51;36.50;87.10
9802;DHT22;4940;50.900;4.672;2023-09-07T09:34:18;36.70;85.30
9802;DHT22;4940;50.900;4.672;2023-09-07T09:36:46;36.80;86.60
9802;DHT22;4940;50.900;4.672;2023-09-07T09:39:22;36.90;85.40
9802;DHT22;4940;50.900;4.672;2023-09-07T09:41:52;36.90;83.50
9802;DHT22;4940;50.900;4.672;2023-09-07T09:44:22;36.90;83.50
9802;DHT22;4940;50.900;4.672;2023-09-07T09:46:52;37.00;82.30
9802;DHT22;4940;50.900;4.672;2023-09-07T09:49:21;36.90;81.90
9802;DHT22;4940;50.900;4.672;2023-09-07T09:51:49;37.00;82.80
9802;DHT22;4940;50.900;4.672;2023-09-07T09:54:17;37.10;82.50
9802;DHT22;4940;50.900;4.672;2023-09-07T09:56:45;37.30;83.20
9802;DHT22;4940;50.900;4.672;2023-09-07T09:59:15;37.40;81.60
9802;DHT22;4940;50.900;4.672;2023-09-07T10:01:44;37.50;80.60
9802;DHT22;4940;50.900;4.672;2023-09-07T10:04:13;37.50;81.10
9802;DHT22;4940;50.900;4.672;2023-09-07T10:06:53;37.70;79.60
9802;DHT22;4940;50.900;4.672;2023-09-07T10:09:20;37.70;78.80
9802;DHT22;4940;50.900;4.672;2023-09-07T10:11:52;37.80;78.80
9802;DHT22;4940;50.900;4.672;2023-09-07T10:14:21;37.90;78.50
9802;DHT22;4940;50.900;4.672;2023-09-07T10:16:49;37.90;78.80
9802;DHT22;4940;50.900;4.672;2023-09-07T10:19:19;38.10;78.40
9802;DHT22;4940;50.900;4.672;2023-09-07T10:21:46;38.10;77.70
9802;DHT22;4940;50.900;4.672;2023-09-07T10:24:24;38.10;77.30
9802;DHT22;4940;50.900;4.672;2023-09-07T10:27:00;38.30;77.70
9802;DHT22;4940;50.900;4.672;2023-09-07T10:29:39;38.20;76.40
9802;DHT22;4940;50.900;4.672;2023-09-07T10:34:36;38.10;76.30
9802;DHT22;4940;50.900;4.672;2023-09-07T10:37:05;38.00;76.90
9802;DHT22;4940;50.900;4.672;2023-09-07T10:39:33;38.00;76.30
9802;DHT22;4940;50.900;4.672;2023-09-07T10:42:00;38.00;76.60
9802;DHT22;4940;50.900;4.672;2023-09-07T10:44:30;38.10;76.20
9802;DHT22;4940;50.900;4.672;2023-09-07T10:46:57;37.90;76.40
9802;DHT22;4940;50.900;4.672;2023-09-07T10:49:24;37.90;76.60
9802;DHT22;4940;50.900;4.672;2023-09-07T10:51:52;37.70;76.70
9802;DHT22;4940;50.900;4.672;2023-09-07T10:54:22;37.70;78.80
9802;DHT22;4940;50.900;4.672;2023-09-07T10:56:51;37.70;76.70
9802;DHT22;4940;50.900;4.672;2023-09-07T10:59:18;37.80;76.70
9802;DHT22;4940;50.900;4.672;2023-09-07T11:01:47;37.80;76.50
9802;DHT22;4940;50.900;4.672;2023-09-07T11:04:15;37.90;76.40
9802;DHT22;4940;50.900;4.672;2023-09-07T11:09:11;37.90;75.30
9802;DHT22;4940;50.900;4.672;2023-09-07T11:11:40;37.90;74.70
9802;DHT22;4940;50.900;4.672;2023-09-07T11:14:07;37.80;74.90
9802;DHT22;4940;50.900;4.672;2023-09-07T11:16:35;37.80;76.30
9802;DHT22;4940;50.900;4.672;2023-09-07T11:19:07;37.70;76.40
9802;DHT22;4940;50.900;4.672;2023-09-07T11:21:35;37.60;75.50
9802;DHT22;4940;50.900;4.672;2023-09-07T11:24:02;37.50;76.40
9802;DHT22;4940;50.900;4.672;2023-09-07T11:26:41;37.40;75.70
9802;DHT22;4940;50.900;4.672;2023-09-07T11:29:09;37.30;75.00
9802;DHT22;4940;50.900;4.672;2023-09-07T11:31:36;37.20;77.50
9802;DHT22;4940;50.900;4.672;2023-09-07T11:34:03;37.10;77.30
9802;DHT22;4940;50.900;4.672;2023-09-07T11:36:36;37.00;76.90
9802;DHT22;4940;50.900;4.672;2023-09-07T11:39:04;37.00;76.40
9802;DHT22;4940;50.900;4.672;2023-09-07T11:41:38;36.90;76.40
9802;DHT22;4940;50.900;4.672;2023-09-07T11:44:05;36.80;76.10
9802;DHT22;4940;50.900;4.672;2023-09-07T11:46:33;36.70;77.60
9802;DHT22;4940;50.900;4.672;2023-09-07T11:49:00;36.60;77.40
9802;DHT22;4940;50.900;4.672;2023-09-07T11:51:28;36.50;77.20
9802;DHT22;4940;50.900;4.672;2023-09-07T11:53:56;36.40;77.70
9802;DHT22;4940;50.900;4.672;2023-09-07T11:56:24;36.20;78.00
9802;DHT22;4940;50.900;4.672;2023-09-07T11:58:52;36.00;78.80
9802;DHT22;4940;50.900;4.672;2023-09-07T12:01:21;35.80;78.30
9802;DHT22;4940;50.900;4.672;2023-09-07T12:03:48;35.70;79.30
9802;DHT22;4940;50.900;4.672;2023-09-07T12:06:15;35.50;78.60
9802;DHT22;4940;50.900;4.672;2023-09-07T12:08:59;35.20;79.40
9802;DHT22;4940;50.900;4.672;2023-09-07T12:13:54;34.80;80.50
9802;DHT22;4940;50.900;4.672;2023-09-07T12:16:22;34.60;80.90
9802;DHT22;4940;50.900;4.672;2023-09-07T12:18:49;34.50;82.10
9802;DHT22;4940;50.900;4.672;2023-09-07T12:21:16;34.30;81.20
9802;DHT22;4940;50.900;4.672;2023-09-07T12:23:43;34.30;82.00
9802;DHT22;4940;50.900;4.672;2023-09-07T12:26:12;34.10;82.40
9802;DHT22;4940;50.900;4.672;2023-09-07T12:28:40;34.00;82.10
9802;DHT22;4940;50.900;4.672;2023-09-07T12:31:07;33.90;83.30
9802;DHT22;4940;50.900;4.672;2023-09-07T12:33:35;33.70;83.80
9802;DHT22;4940;50.900;4.672;2023-09-07T12:36:03;33.60;84.20
9802;DHT22;4940;50.900;4.672;2023-09-07T12:38:35;33.60;84.20
9802;DHT22;4940;50.900;4.672;2023-09-07T12:41:02;33.60;84.70
9802;DHT22;4940;50.900;4.672;2023-09-07T12:43:30;33.60;85.20
9802;DHT22;4940;50.900;4.672;2023-09-07T12:45:59;33.60;86.10
9802;DHT22;4940;50.900;4.672;2023-09-07T12:48:26;33.60;87.00
9802;DHT22;4940;50.900;4.672;2023-09-07T12:53:22;33.50;85.60
9802;DHT22;4940;50.900;4.672;2023-09-07T12:55:52;33.50;85.20
9802;DHT22;4940;50.900;4.672;2023-09-07T12:58:19;33.40;85.10
9802;DHT22;4940;50.900;4.672;2023-09-07T13:00:48;32.40;84.80
9802;DHT22;4940;50.900;4.672;2023-09-07T13:03:17;33.40;86.60
9802;DHT22;4940;50.900;4.672;2023-09-07T13:05:44;33.40;87.10
9802;DHT22;4940;50.900;4.672;2023-09-07T13:08:12;33.20;86.40
9802;DHT22;4940;50.900;4.672;2023-09-07T13:10:39;33.30;88.40
9802;DHT22;4940;50.900;4.672;2023-09-07T13:13:06;33.40;86.60
9802;DHT22;4940;50.900;4.672;2023-09-07T13:15:34;33.20;86.90
9802;DHT22;4940;50.900;4.672;2023-09-07T13:18:03;33.00;86.00
9802;DHT22;4940;50.900;4.672;2023-09-07T13:20:30;33.20;86.90
9802;DHT22;4940;50.900;4.672;2023-09-07T13:22:58;33.10;87.90
9802;DHT22;4940;50.900;4.672;2023-09-07T13:25:26;33.00;86.60
9802;DHT22;4940;50.900;4.672;2023-09-07T13:27:54;33.00;87.20
9802;DHT22;4940;50.900;4.672;2023-09-07T13:35:18;32.70;88.00
9802;DHT22;4940;50.900;4.672;2023-09-07T13:37:45;32.60;87.90
9802;DHT22;4940;50.900;4.672;2023-09-07T13:40:12;32.60;87.80
9802;DHT22;4940;50.900;4.672;2023-09-07T13:45:09;32.50;88.20
9802;DHT22;4940;50.900;4.672;2023-09-07T13:47:37;32.40;88.90
9802;DHT22;4940;50.900;4.672;2023-09-07T13:50:05;32.40;89.60
9802;DHT22;4940;50.900;4.672;2023-09-07T13:57:33;32.30;88.60
9802;DHT22;4940;50.900;4.672;2023-09-07T14:00:01;32.30;89.50
9802;DHT22;4940;50.900;4.672;2023-09-07T14:02:31;32.20;89.90
9802;DHT22;4940;50.900;4.672;2023-09-07T14:23:13;32.00;90.80
9802;DHT22;4940;50.900;4.672;2023-09-07T14:28:11;31.90;90.70
9802;DHT22;4940;50.900;4.672;2023-09-07T14:33:06;31.90;91.00
9802;DHT22;4940;50.900;4.672;2023-09-07T14:35:34;31.90;91.10
9802;DHT22;4940;50.900;4.672;2023-09-07T14:40:30;32.00;91.10
9802;DHT22;4940;50.900;4.672;2023-09-07T14:42:58;31.80;91.20
9802;DHT22;4940;50.900;4.672;2023-09-07T14:45:25;31.80;91.50
9802;DHT22;4940;50.900;4.672;2023-09-07T14:47:53;31.80;91.20
9802;DHT22;4940;50.900;4.672;2023-09-07T14:50:20;31.90;91.20
9802;DHT22;4940;50.900;4.672;2023-09-07T14:52:48;31.70;91.30
9802;DHT22;4940;50.900;4.672;2023-09-07T14:55:16;31.70;91.20
9802;DHT22;4940;50.900;4.672;2023-09-07T14:57:45;31.70;91.60
9802;DHT22;4940;50.900;4.672;2023-09-07T15:00:12;31.70;91.30
9802;DHT22;4940;50.900;4.672;2023-09-07T15:02:40;31.70;91.50
9802;DHT22;4940;50.900;4.672;2023-09-07T15:05:08;31.70;91.90
9802;DHT22;4940;50.900;4.672;2023-09-07T15:07:38;31.80;91.70
9802;DHT22;4940;50.900;4.672;2023-09-07T15:10:06;31.60;91.70
9802;DHT22;4940;50.900;4.672;2023-09-07T15:12:34;31.70;92.00
9802;DHT22;4940;50.900;4.672;2023-09-07T15:17:31;31.70;91.90
9802;DHT22;4940;50.900;4.672;2023-09-07T15:19:58;31.60;92.00
9802;DHT22;4940;50.900;4.672;2023-09-07T15:22:26;31.50;92.30
9802;DHT22;4940;50.900;4.672;2023-09-07T15:24:53;31.50;92.00
9802;DHT22;4940;50.900;4.672;2023-09-07T15:29:49;31.40;91.90
9802;DHT22;4940;50.900;4.672;2023-09-07T15:32:18;31.60;92.50
9802;DHT22;4940;50.900;4.672;2023-09-07T15:34:46;31.50;92.10
9802;DHT22;4940;50.900;4.672;2023-09-07T15:37:13;31.50;92.40
9802;DHT22;4940;50.900;4.672;2023-09-07T15:49:42;31.30;92.60
9802;DHT22;4940;50.900;4.672;2023-09-07T15:52:18;31.40;92.50
9802;DHT22;4940;50.900;4.672;2023-09-07T15:54:46;31.30;92.50
9802;DHT22;4940;50.900;4.672;2023-09-07T15:57:13;31.30;93.00
9802;DHT22;4940;50.900;4.672;2023-09-07T16:02:28;31.30;92.70
9802;DHT22;4940;50.900;4.672;2023-09-07T16:04:57;31.10;92.90
9802;DHT22;4940;50.900;4.672;2023-09-07T16:07:25;31.20;93.40
9802;DHT22;4940;50.900;4.672;2023-09-07T16:09:53;31.10;93.40
9802;DHT22;4940;50.900;4.672;2023-09-07T16:12:20;31.10;93.40
9802;DHT22;4940;50.900;4.672;2023-09-07T16:14:48;31.10;93.80
9802;DHT22;4940;50.900;4.672;2023-09-07T16:17:15;31.10;93.80
9802;DHT22;4940;50.900;4.672;2023-09-07T16:19:42;31.10;94.00
9802;DHT22;4940;50.900;4.672;2023-09-07T16:22:11;31.00;94.00
9802;DHT22;4940;50.900;4.672;2023-09-07T16:24:38;31.00;94.20
9802;DHT22;4940;50.900;4.672;2023-09-07T16:27:06;30.90;94.60
9802;DHT22;4940;50.900;4.672;2023-09-07T16:29:34;31.00;94.50
9802;DHT22;4940;50.900;4.672;2023-09-07T16:32:01;30.90;94.30
9802;DHT22;4940;50.900;4.672;2023-09-07T16:34:29;30.90;94.50
9802;DHT22;4940;50.900;4.672;2023-09-07T16:36:58;30.90;94.80
9802;DHT22;4940;50.900;4.672;2023-09-07T16:39:29;30.90;95.00
9802;DHT22;4940;50.900;4.672;2023-09-07T16:42:02;30.70;94.80
9802;DHT22;4940;50.900;4.672;2023-09-07T16:44:29;30.90;95.20
9802;DHT22;4940;50.900;4.672;2023-09-07T16:51:53;30.70;95.30
9802;DHT22;4940;50.900;4.672;2023-09-07T16:54:20;30.70;95.30
9802;DHT22;4940;50.900;4.672;2023-09-07T16:59:16;30.60;95.60
9802;DHT22;4940;50.900;4.672;2023-09-07T17:01:44;30.50;95.90
9802;DHT22;4940;50.900;4.672;2023-09-07T17:06:39;30.50;96.00
9802;DHT22;4940;50.900;4.672;2023-09-07T17:09:08;30.40;96.30
9802;DHT22;4940;50.900;4.672;2023-09-07T17:11:35;30.40;96.20
9802;DHT22;4940;50.900;4.672;2023-09-07T17:14:03;30.40;96.70
9802;DHT22;4940;50.900;4.672;2023-09-07T17:21:28;30.30;97.00
9802;DHT22;4940;50.900;4.672;2023-09-07T17:23:55;30.20;97.30
9802;DHT22;4940;50.900;4.672;2023-09-07T17:26:23;30.10;97.30
9802;DHT22;4940;50.900;4.672;2023-09-07T17:31:20;30.00;97.80
9802;DHT22;4940;50.900;4.672;2023-09-07T17:33:48;29.90;98.00
9802;DHT22;4940;50.900;4.672;2023-09-07T17:36:16;29.90;98.80
9802;DHT22;4940;50.900;4.672;2023-09-07T17:38:44;29.80;98.90
9802;DHT22;4940;50.900;4.672;2023-09-07T17:41:12;29.80;99.10
9802;DHT22;4940;50.900;4.672;2023-09-07T17:43:39;29.70;99.60
9802;DHT22;4940;50.900;4.672;2023-09-07T17:46:07;29.50;99.70
9802;DHT22;4940;50.900;4.672;2023-09-07T17:48:36;29.50;99.90
9802;DHT22;4940;50.900;4.672;2023-09-07T17:51:03;29.40;99.90
9802;DHT22;4940;50.900;4.672;2023-09-07T17:53:32;29.30;99.90
9802;DHT22;4940;50.900;4.672;2023-09-07T17:56:05;29.30;99.90
9802;DHT22;4940;50.900;4.672;2023-09-07T17:58:33;29.00;99.90
9802;DHT22;4940;50.900;4.672;2023-09-07T18:01:01;28.90;99.90
9802;DHT22;4940;50.900;4.672;2023-09-07T18:03:28;28.80;99.90
9802;DHT22;4940;50.900;4.672;2023-09-07T18:08:25;28.30;99.90
9802;DHT22;4940;50.900;4.672;2023-09-07T18:10:52;28.50;99.90
9802;DHT22;4940;50.900;4.672;2023-09-07T18:13:20;28.30;99.90
9802;DHT22;4940;50.900;4.672;2023-09-07T18:15:47;28.20;99.90
9802;DHT22;4940;50.900;4.672;2023-09-07T18:18:14;28.10;99.90
9802;DHT22;4940;50.900;4.672;2023-09-07T18:20:42;28.10;99.90
9802;DHT22;4940;50.900;4.672;2023-09-07T18:23:12;27.90;99.90
9802;DHT22;4940;50.900;4.672;2023-09-07T18:25:40;27.70;99.90
9802;DHT22;4940;50.900;4.672;2023-09-07T18:28:08;27.70;99.90
9802;DHT22;4940;50.900;4.672;2023-09-07T18:30:35;27.50;99.90
9802;DHT22;4940;50.900;4.672;2023-09-07T18:33:03;27.40;99.90
9802;DHT22;4940;50.900;4.672;2023-09-07T18:35:31;27.40;99.90
9802;DHT22;4940;50.900;4.672;2023-09-07T18:37:59;27.30;99.90
9802;DHT22;4940;50.900;4.672;2023-09-07T18:40:27;27.20;99.90
9802;DHT22;4940;50.900;4.672;2023-09-07T18:42:55;27.10;99.90
9802;DHT22;4940;50.900;4.672;2023-09-07T18:45:24;26.90;99.90
9802;DHT22;4940;50.900;4.672;2023-09-07T18:47:52;26.80;99.90
9802;DHT22;4940;50.900;4.672;2023-09-07T18:50:21;26.80;99.90
9802;DHT22;4940;50.900;4.672;2023-09-07T18:52:50;26.70;99.90
9802;DHT22;4940;50.900;4.672;2023-09-07T18:55:18;26.60;99.90
9802;DHT22;4940;50.900;4.672;2023-09-07T19:02:42;26.40;99.90
9802;DHT22;4940;50.900;4.672;2023-09-07T19:07:40;26.20;99.90
9802;DHT22;4940;50.900;4.672;2023-09-07T19:10:08;26.10;99.90
9802;DHT22;4940;50.900;4.672;2023-09-07T19:12:36;26.10;99.90
9802;DHT22;4940;50.900;4.672;2023-09-07T19:15:08;26.00;99.90
9802;DHT22;4940;50.900;4.672;2023-09-07T19:17:37;25.90;99.90